createdAt,value
2023-04-18T00:01:51.221Z,4.5
2023-04-18T00:02:51.304Z,4.39
2023-04-18T00:03:51.526Z,4.5
2023-04-18T00:04:51.452Z,4.67
2023-04-18T00:05:51.202Z,4.5
2023-04-18T00:06:51.230Z,4.5
2023-04-18T00:08:51.220Z,4.5
2023-04-18T00:09:51.222Z,4.39
2023-04-18T00:11:51.223Z,4.22
2023-04-18T00:12:51.222Z,4.5
2023-04-18T00:13:51.222Z,4.67
2023-04-18T00:14:51.205Z,4.83
2023-04-18T00:15:51.221Z,4.67
2023-04-18T00:17:51.234Z,4.5
2023-04-18T00:18:51.234Z,4.5
2023-04-18T00:19:51.233Z,4.5
2023-04-18T00:20:51.257Z,4.5
2023-04-18T00:21:51.227Z,4.5
2023-04-18T00:22:51.243Z,4.67
2023-04-18T00:23:51.245Z,4.5
2023-04-18T00:25:51.286Z,4.5
2023-04-18T00:27:51.241Z,4.39
2023-04-18T00:28:51.238Z,4.22
2023-04-18T00:29:51.240Z,4.5
2023-04-18T00:30:51.318Z,4.5
2023-04-18T00:32:51.333Z,4.83
2023-04-18T00:33:51.262Z,4.5
2023-04-18T00:35:51.252Z,4.5
2023-04-18T00:36:51.293Z,4.39
2023-04-18T00:38:51.258Z,4.39
2023-04-18T00:39:51.266Z,4.39
2023-04-18T00:40:51.267Z,4.39
2023-04-18T00:41:51.258Z,4.39
2023-04-18T00:42:51.261Z,4.39
2023-04-18T00:43:51.289Z,4.5
2023-04-18T00:45:51.308Z,4.5
2023-04-18T00:46:51.287Z,4.5
2023-04-18T00:48:51.286Z,4.5
2023-04-18T00:49:51.280Z,4.83
2023-04-18T00:50:51.269Z,4.83
2023-04-18T00:51:51.299Z,4.94
2023-04-18T00:52:51.428Z,4.67
2023-04-18T00:54:51.302Z,4.67
2023-04-18T00:56:51.279Z,4.83
2023-04-18T00:57:51.426Z,4.5
2023-04-18T00:59:51.292Z,4.83
2023-04-18T01:00:51.284Z,4.83
2023-04-18T01:01:51.320Z,4.39
2023-04-18T01:02:51.391Z,4.5
2023-04-18T01:03:51.376Z,3.94
2023-04-18T01:04:51.301Z,4.5
2023-04-18T01:05:51.292Z,4.39
2023-04-18T01:06:51.291Z,4.22
2023-04-18T01:07:51.297Z,4.11
2023-04-18T01:08:51.332Z,4.22
2023-04-18T01:10:51.291Z,4.39
2023-04-18T01:11:51.297Z,4.39
2023-04-18T01:13:51.309Z,4.22
2023-04-18T01:15:51.314Z,4.22
2023-04-18T01:17:51.307Z,4.22
2023-04-18T01:18:51.316Z,4.22
2023-04-18T01:19:51.298Z,3.94
2023-04-18T01:20:51.323Z,4.11
2023-04-18T01:21:51.317Z,4.22
2023-04-18T01:22:51.306Z,4.22
2023-04-18T01:23:51.325Z,4.11
2023-04-18T01:24:51.350Z,4.11
2023-04-18T01:26:51.311Z,4.5
2023-04-18T01:28:51.332Z,4.22
2023-04-18T01:29:51.327Z,4.22
2023-04-18T01:30:51.370Z,4.39
2023-04-18T01:32:51.381Z,4.39
2023-04-18T01:33:51.321Z,4.39
2023-04-18T01:34:51.327Z,4.22
2023-04-18T01:35:51.326Z,4.39
2023-04-18T01:36:51.338Z,4.39
2023-04-18T01:37:51.359Z,4.22
2023-04-18T01:38:51.320Z,4.39
2023-04-18T01:39:51.348Z,4.22
2023-04-18T01:40:51.464Z,4.22
2023-04-18T01:42:51.340Z,3.78
2023-04-18T01:43:51.337Z,4.11
2023-04-18T01:45:51.351Z,4.39
2023-04-18T01:46:51.371Z,4.11
2023-04-18T01:47:51.414Z,4.5
2023-04-18T01:49:51.347Z,4.39
2023-04-18T01:50:51.361Z,4.22
2023-04-18T01:51:51.370Z,4.11
2023-04-18T01:52:51.365Z,4.39
2023-04-18T01:54:51.352Z,4.22
2023-04-18T01:55:51.357Z,4.39
2023-04-18T01:56:51.372Z,4.11
2023-04-18T01:57:51.354Z,4.11
2023-04-18T01:58:51.371Z,4.39
2023-04-18T01:59:51.350Z,4.22
2023-04-18T02:00:51.386Z,4.11
2023-04-18T02:02:51.545Z,4.22
2023-04-18T02:03:51.527Z,4.39
2023-04-18T02:04:51.357Z,4.39
2023-04-18T02:05:51.367Z,4.11
2023-04-18T02:07:51.354Z,4.22
2023-04-18T02:08:51.375Z,4.11
2023-04-18T02:09:51.357Z,4.22
2023-04-18T02:10:51.382Z,4.22
2023-04-18T02:12:51.394Z,4.11
2023-04-18T02:13:51.360Z,4.39
2023-04-18T02:14:51.367Z,4.22
2023-04-18T02:15:51.374Z,4.39
2023-04-18T02:16:51.405Z,4.39
2023-04-18T02:17:51.378Z,4.22
2023-04-18T02:18:51.388Z,4.11
2023-04-18T02:19:51.367Z,4.5
2023-04-18T02:20:51.367Z,4.11
2023-04-18T02:21:51.373Z,4.39
2023-04-18T02:23:51.378Z,4.22
2023-04-18T02:24:51.391Z,4.11
2023-04-18T02:25:51.373Z,4.39
2023-04-18T02:26:51.381Z,4.5
2023-04-18T02:27:51.401Z,4.39
2023-04-18T02:28:51.405Z,4.5
2023-04-18T02:30:51.390Z,4.5
2023-04-18T02:32:51.482Z,4.39
2023-04-18T02:33:51.382Z,4.39
2023-04-18T02:34:51.387Z,4.39
2023-04-18T02:35:51.383Z,4.5
2023-04-18T02:37:51.385Z,4.39
2023-04-18T02:38:51.396Z,4.22
2023-04-18T02:39:51.396Z,4.5
2023-04-18T02:41:51.398Z,4.39
2023-04-18T02:42:51.401Z,4.5
2023-04-18T02:43:51.385Z,4.5
2023-04-18T02:44:51.463Z,4.5
2023-04-18T02:45:51.410Z,4.39
2023-04-18T02:46:51.395Z,4.5
2023-04-18T02:47:55.754Z,4.67
2023-04-18T02:48:51.379Z,4.22
2023-04-18T02:49:51.402Z,4.5
2023-04-18T02:50:51.401Z,4.5
2023-04-18T02:52:51.391Z,4.39
2023-04-18T02:53:51.394Z,4.67
2023-04-18T02:54:51.390Z,4.5
2023-04-18T02:55:51.402Z,4.5
2023-04-18T02:56:51.389Z,4.5
2023-04-18T02:57:51.426Z,4.39
2023-04-18T02:58:51.398Z,4.5
2023-04-18T02:59:51.387Z,4.39
2023-04-18T03:00:51.532Z,4.39
2023-04-18T03:02:51.442Z,4.22
2023-04-18T03:03:51.391Z,4.11
2023-04-18T03:04:51.421Z,4.22
2023-04-18T03:05:51.404Z,4.39
2023-04-18T03:06:51.398Z,4.39
2023-04-18T03:07:51.407Z,3.94
2023-04-18T03:09:51.412Z,4.39
2023-04-18T03:10:51.396Z,3.94
2023-04-18T03:11:51.466Z,4.5
2023-04-18T03:12:51.391Z,4.39
2023-04-18T03:13:51.407Z,3.94
2023-04-18T03:14:51.413Z,4.39
2023-04-18T03:16:53.800Z,3.94
2023-04-18T03:18:51.399Z,4.5
2023-04-18T03:19:51.412Z,4.39
2023-04-18T03:20:51.419Z,4.39
2023-04-18T03:21:51.433Z,4.5
2023-04-18T03:23:51.425Z,4.5
2023-04-18T03:24:51.419Z,4.83
2023-04-18T03:25:51.408Z,4.5
2023-04-18T03:26:51.407Z,4.5
2023-04-18T03:27:51.409Z,4.22
2023-04-18T03:28:51.426Z,4.5
2023-04-18T03:29:51.421Z,4.22
2023-04-18T03:31:51.416Z,4.39
2023-04-18T03:32:51.470Z,4.5
2023-04-18T03:33:51.417Z,4.22
2023-04-18T03:34:51.424Z,4.5
2023-04-18T03:36:51.422Z,3.78
2023-04-18T03:37:51.423Z,4.22
2023-04-18T03:38:51.425Z,4.11
2023-04-18T03:39:51.441Z,4.22
2023-04-18T03:40:51.440Z,4.22
2023-04-18T03:42:51.444Z,4.5
2023-04-18T03:43:51.431Z,3.94
2023-04-18T03:44:51.447Z,4.22
2023-04-18T03:46:51.446Z,4.39
2023-04-18T03:47:51.457Z,4.39
2023-04-18T03:48:51.474Z,4.22
2023-04-18T03:50:51.459Z,4.11
2023-04-18T03:51:51.462Z,4.22
2023-04-18T03:52:51.454Z,4.11
2023-04-18T03:54:51.470Z,4.22
2023-04-18T03:56:51.467Z,4.39
2023-04-18T03:58:51.462Z,4.39
2023-04-18T03:59:51.496Z,3.78
2023-04-18T04:00:51.487Z,4.22
2023-04-18T04:02:51.646Z,3.94
2023-04-18T04:03:51.578Z,4.5
2023-04-18T04:04:51.615Z,4.39
2023-04-18T04:06:51.484Z,4.22
2023-04-18T04:07:51.471Z,4.22
2023-04-18T04:08:51.482Z,4.39
2023-04-18T04:10:51.472Z,4.22
2023-04-18T04:12:51.475Z,4.11
2023-04-18T04:13:51.481Z,4.5
2023-04-18T04:14:51.481Z,4.22
2023-04-18T04:15:51.500Z,4.22
2023-04-18T04:16:51.491Z,4.22
2023-04-18T04:17:51.579Z,4.11
2023-04-18T04:18:51.496Z,4.39
2023-04-18T04:19:51.499Z,4.22
2023-04-18T04:20:51.508Z,4.22
2023-04-18T04:22:51.488Z,4.22
2023-04-18T04:24:51.482Z,4.22
2023-04-18T04:25:51.496Z,4.39
2023-04-18T04:27:51.493Z,4.22
2023-04-18T04:28:51.534Z,4.39
2023-04-18T04:29:51.499Z,4.39
2023-04-18T04:30:51.504Z,4.5
2023-04-18T04:31:51.568Z,4.39
2023-04-18T04:32:51.563Z,4.5
2023-04-18T04:33:51.514Z,4.11
2023-04-18T04:34:51.522Z,4.39
2023-04-18T04:35:51.499Z,4.39
2023-04-18T04:36:51.588Z,4.11
2023-04-18T04:38:51.514Z,4.22
2023-04-18T04:40:51.508Z,4.39
2023-04-18T04:41:51.520Z,4.22
2023-04-18T04:43:51.530Z,4.11
2023-04-18T04:44:51.534Z,4.39
2023-04-18T04:46:51.514Z,4.11
2023-04-18T04:47:51.547Z,3.94
2023-04-18T04:48:51.526Z,4.39
2023-04-18T04:50:51.532Z,4.5
2023-04-18T04:51:51.525Z,4.5
2023-04-18T04:52:51.535Z,4.5
2023-04-18T04:54:51.552Z,4.5
2023-04-18T04:56:51.546Z,4.5
2023-04-18T04:57:51.520Z,4.22
2023-04-18T04:58:51.558Z,4.39
2023-04-18T04:59:51.522Z,4.5
2023-04-18T05:00:51.554Z,4.5
2023-04-18T05:01:51.585Z,4.5
2023-04-18T05:02:51.650Z,4.67
2023-04-18T05:03:51.730Z,4.5
2023-04-18T05:04:51.545Z,4.39
2023-04-18T05:05:51.553Z,4.22
2023-04-18T05:06:51.541Z,4.5
2023-04-18T05:07:51.544Z,4.39
2023-04-18T05:08:51.589Z,4.5
2023-04-18T05:09:51.545Z,4.5
2023-04-18T05:10:51.551Z,4.5
2023-04-18T05:12:51.560Z,4.67
2023-04-18T05:14:51.562Z,4.5
2023-04-18T05:15:51.545Z,4.5
2023-04-18T05:16:51.590Z,4.67
2023-04-18T05:17:51.587Z,4.5
2023-04-18T05:18:51.606Z,4.67
2023-04-18T05:19:51.561Z,4.5
2023-04-18T05:20:51.562Z,4.39
2023-04-18T05:21:51.560Z,4.67
2023-04-18T05:22:51.577Z,4.5
2023-04-18T05:23:51.558Z,4.67
2023-04-18T05:24:51.589Z,4.94
2023-04-18T05:26:51.579Z,4.83
2023-04-18T05:27:51.585Z,4.94
2023-04-18T05:28:51.569Z,4.94
2023-04-18T05:29:51.578Z,4.94
2023-04-18T05:31:51.589Z,4.94
2023-04-18T05:32:51.597Z,4.83
2023-04-18T05:34:51.596Z,4.94
2023-04-18T05:35:51.593Z,4.94
2023-04-18T05:36:51.595Z,4.83
2023-04-18T05:38:51.590Z,4.94
2023-04-18T05:40:51.666Z,4.94
2023-04-18T05:41:51.579Z,4.83
2023-04-18T05:42:51.589Z,5.11
2023-04-18T05:44:51.586Z,5.11
2023-04-18T05:45:51.634Z,4.83
2023-04-18T05:46:51.601Z,4.94
2023-04-18T05:47:51.640Z,5.11
2023-04-18T05:48:51.612Z,4.94
2023-04-18T05:49:51.603Z,4.83
2023-04-18T05:50:51.597Z,4.94
2023-04-18T05:51:51.604Z,4.83
2023-04-18T05:52:51.624Z,4.94
2023-04-18T05:53:51.618Z,4.94
2023-04-18T05:54:51.613Z,4.94
2023-04-18T05:55:51.669Z,4.83
2023-04-18T05:56:51.732Z,4.67
2023-04-18T05:57:51.617Z,4.94
2023-04-18T05:58:51.664Z,4.67
2023-04-18T06:00:51.641Z,4.83
2023-04-18T06:01:51.620Z,4.83
2023-04-18T06:02:51.742Z,4.83
2023-04-18T06:03:51.834Z,4.83
2023-04-18T06:04:51.766Z,4.67
2023-04-18T06:06:51.619Z,4.67
2023-04-18T06:07:51.625Z,4.94
2023-04-18T06:09:51.637Z,4.94
2023-04-18T06:10:51.622Z,4.83
2023-04-18T06:11:51.635Z,4.83
2023-04-18T06:12:51.683Z,4.39
2023-04-18T06:14:51.632Z,4.83
2023-04-18T06:16:51.636Z,5.11
2023-04-18T06:17:51.631Z,4.94
2023-04-18T06:18:51.630Z,5.11
2023-04-18T06:19:51.621Z,5.22
2023-04-18T06:20:51.655Z,5.11
2023-04-18T06:22:51.638Z,5.22
2023-04-18T06:23:51.644Z,5.39
2023-04-18T06:24:51.630Z,5.39
2023-04-18T06:25:51.630Z,5.56
2023-04-18T06:27:51.653Z,5.11
2023-04-18T06:28:51.674Z,5.22
2023-04-18T06:29:51.630Z,5.11
2023-04-18T06:30:51.644Z,5.39
2023-04-18T06:31:51.753Z,5.11
2023-04-18T06:32:51.699Z,5.39
2023-04-18T06:33:51.657Z,5.39
2023-04-18T06:34:51.634Z,5.67
2023-04-18T06:36:51.643Z,5.67
2023-04-18T06:37:51.650Z,5.67
2023-04-18T06:38:51.648Z,5.22
2023-04-18T06:39:51.665Z,5.67
2023-04-18T06:40:51.634Z,5.56
2023-04-18T06:41:51.651Z,5.22
2023-04-18T06:42:51.651Z,5.56
2023-04-18T06:44:02.559Z,5.56
2023-04-18T06:44:51.761Z,5.39
2023-04-18T06:46:51.669Z,5.78
2023-04-18T06:48:51.666Z,5.94
2023-04-18T06:49:51.669Z,5.94
2023-04-18T06:50:51.671Z,5.78
2023-04-18T06:51:51.664Z,5.78
2023-04-18T06:52:51.675Z,5.56
2023-04-18T06:54:51.673Z,5.94
2023-04-18T06:56:51.660Z,6.22
2023-04-18T06:57:51.689Z,6.06
2023-04-18T06:59:51.677Z,6.39
2023-04-18T07:00:51.942Z,6.39
2023-04-18T07:02:51.872Z,6.22
2023-04-18T07:04:51.696Z,5.67
2023-04-18T07:06:51.673Z,6.22
2023-04-18T07:08:53.343Z,5.94
2023-04-18T07:09:51.682Z,6.22
2023-04-18T07:11:51.673Z,5.94
2023-04-18T07:12:51.682Z,5.67
2023-04-18T07:14:51.688Z,5.78
2023-04-18T07:15:51.678Z,5.78
2023-04-18T07:16:51.899Z,5.78
2023-04-18T07:18:51.711Z,6.22
2023-04-18T07:19:51.669Z,6.22
2023-04-18T07:20:51.700Z,5.94
2023-04-18T07:22:51.689Z,6.22
2023-04-18T07:23:51.691Z,6.39
2023-04-18T07:25:51.680Z,6.39
2023-04-18T07:26:53.773Z,6.67
2023-04-18T07:27:51.692Z,6.67
2023-04-18T07:28:51.691Z,6.5
2023-04-18T07:29:51.692Z,5.94
2023-04-18T07:30:51.727Z,6.67
2023-04-18T07:31:51.691Z,6.78
2023-04-18T07:32:51.905Z,6.78
2023-04-18T07:34:51.709Z,7.11
2023-04-18T07:35:51.711Z,6.94
2023-04-18T07:36:51.697Z,7.11
2023-04-18T07:38:51.693Z,6.78
2023-04-18T07:39:51.696Z,6.94
2023-04-18T07:40:51.706Z,6.94
2023-04-18T07:41:51.744Z,6.94
2023-04-18T07:42:51.711Z,6.78
2023-04-18T07:43:51.702Z,6.94
2023-04-18T07:44:51.714Z,7.11
2023-04-18T07:46:51.709Z,6.39
2023-04-18T07:47:51.738Z,6.5
2023-04-18T07:48:51.726Z,6.67
2023-04-18T07:50:51.704Z,6.67
2023-04-18T07:51:51.711Z,6.39
2023-04-18T07:52:51.699Z,6.39
2023-04-18T07:53:51.701Z,6.67
2023-04-18T07:54:51.717Z,6.67
2023-04-18T07:55:51.724Z,6.67
2023-04-18T07:56:51.694Z,6.94
2023-04-18T07:57:51.726Z,6.94
2023-04-18T07:59:51.707Z,7.39
2023-04-18T08:00:51.712Z,7.78
2023-04-18T08:01:51.720Z,7.5
2023-04-18T08:02:51.805Z,7.39
2023-04-18T08:03:51.868Z,7.5
2023-04-18T08:04:51.801Z,7.94
2023-04-18T08:06:51.735Z,7.5
2023-04-18T08:07:51.713Z,7.39
2023-04-18T08:08:51.714Z,7.5
2023-04-18T08:09:51.706Z,7.22
2023-04-18T08:10:51.721Z,7.39
2023-04-18T08:12:51.736Z,7.22
2023-04-18T08:13:51.707Z,7.11
2023-04-18T08:14:51.726Z,7.78
2023-04-18T08:15:51.763Z,7.39
2023-04-18T08:16:51.709Z,7.94
2023-04-18T08:17:51.757Z,8.28
2023-04-18T08:18:51.727Z,7.78
2023-04-18T08:19:51.731Z,8.39
2023-04-18T08:20:51.832Z,8.61
2023-04-18T08:23:05.524Z,8.94
2023-04-18T08:23:51.709Z,8.5
2023-04-18T08:25:04.134Z,8.39
2023-04-18T08:25:51.710Z,9.06
2023-04-18T08:26:51.732Z,8.94
2023-04-18T08:27:51.729Z,8.78
2023-04-18T08:28:51.716Z,9.22
2023-04-18T08:29:51.711Z,9.22
2023-04-18T08:30:51.794Z,9.22
2023-04-18T08:32:51.823Z,9.22
2023-04-18T08:33:51.739Z,9.5
2023-04-18T08:35:51.729Z,9.22
2023-04-18T08:36:51.741Z,9.06
2023-04-18T08:38:51.743Z,9.67
2023-04-18T08:39:51.728Z,10.39
2023-04-18T08:40:51.736Z,10.56
2023-04-18T08:42:51.731Z,9.78
2023-04-18T08:43:51.744Z,9.94
2023-04-18T08:45:51.737Z,9.39
2023-04-18T08:46:51.729Z,8.94
2023-04-18T08:47:51.761Z,9.67
2023-04-18T08:48:51.734Z,10.11
2023-04-18T08:50:51.730Z,9.06
2023-04-18T08:51:51.727Z,9.22
2023-04-18T08:52:51.767Z,9.39
2023-04-18T08:53:51.733Z,9.67
2023-04-18T08:54:51.734Z,10.11
2023-04-18T08:55:51.740Z,9.39
2023-04-18T08:56:51.756Z,9.06
2023-04-18T08:58:51.739Z,10.22
2023-04-18T09:00:51.750Z,10.39
2023-04-18T09:01:51.748Z,9.06
2023-04-18T09:02:51.845Z,9.67
2023-04-18T09:03:51.764Z,9.94
2023-04-18T09:04:51.733Z,10.67
2023-04-18T09:05:51.745Z,11.44
2023-04-18T09:06:51.745Z,11.44
2023-04-18T09:08:51.758Z,11.61
2023-04-18T09:09:51.739Z,11.83
2023-04-18T09:10:51.748Z,10.83
2023-04-18T09:11:51.758Z,9.67
2023-04-18T09:12:51.743Z,9.67
2023-04-18T09:13:51.760Z,9.94
2023-04-18T09:14:51.746Z,10.22
2023-04-18T09:15:51.756Z,9.67
2023-04-18T09:16:51.779Z,9.5
2023-04-18T09:17:51.778Z,10.11
2023-04-18T09:18:51.757Z,11
2023-04-18T09:19:51.745Z,11
2023-04-18T09:20:51.759Z,9.67
2023-04-18T09:21:51.759Z,9.94
2023-04-18T09:23:51.775Z,10.11
2023-04-18T09:24:51.806Z,10.11
2023-04-18T09:26:51.761Z,10.39
2023-04-18T09:27:51.778Z,10.22
2023-04-18T09:29:51.784Z,10.56
2023-04-18T09:31:51.777Z,10.56
2023-04-18T09:32:51.856Z,10.56
2023-04-18T09:34:51.787Z,10.22
2023-04-18T09:35:51.802Z,11
2023-04-18T09:36:51.812Z,10.67
2023-04-18T09:39:51.785Z,9.78
2023-04-18T09:40:51.807Z,10.67
2023-04-18T09:41:51.785Z,10.83
2023-04-18T09:42:51.799Z,10.56
2023-04-18T09:43:51.806Z,9.94
2023-04-18T09:44:51.812Z,10.56
2023-04-18T09:45:51.884Z,11.28
2023-04-18T09:46:51.797Z,11.11
2023-04-18T09:47:51.818Z,11.83
2023-04-18T09:48:51.808Z,11.83
2023-04-18T09:49:51.800Z,10.83
2023-04-18T09:50:51.826Z,10.56
2023-04-18T09:51:51.822Z,10.83
2023-04-18T09:52:51.826Z,11.44
2023-04-18T09:54:51.811Z,10.67
2023-04-18T09:55:51.814Z,11.06
2023-04-18T09:56:51.981Z,10.83
2023-04-18T09:58:51.813Z,10.83
2023-04-18T10:00:51.810Z,12.11
2023-04-18T10:01:51.892Z,11.83
2023-04-18T10:03:51.924Z,11.5
2023-04-18T10:04:51.910Z,11.61
2023-04-18T10:06:51.847Z,12.33
2023-04-18T10:07:51.816Z,11.61
2023-04-18T10:08:51.843Z,11.61
2023-04-18T10:09:51.813Z,11.89
2023-04-18T10:10:51.830Z,12
2023-04-18T10:11:51.810Z,11.61
2023-04-18T10:12:51.895Z,11.61
2023-04-18T10:14:51.824Z,11.5
2023-04-18T10:15:51.901Z,12.33
2023-04-18T10:16:51.836Z,12.5
2023-04-18T10:18:51.828Z,12.17
2023-04-18T10:20:51.835Z,12.5
2023-04-18T10:21:51.818Z,12.61
2023-04-18T10:22:51.827Z,12.94
2023-04-18T10:23:51.859Z,13.39
2023-04-18T10:25:51.849Z,12.5
2023-04-18T10:26:51.831Z,12
2023-04-18T10:28:51.977Z,12.94
2023-04-18T10:30:51.846Z,12
2023-04-18T10:31:51.921Z,12
2023-04-18T10:32:52.900Z,11.61
2023-04-18T10:34:01.244Z,12
2023-04-18T10:34:51.843Z,12
2023-04-18T10:35:51.842Z,12.5
2023-04-18T10:36:51.859Z,12.17
2023-04-18T10:37:51.856Z,12.17
2023-04-18T10:39:51.848Z,12.17
2023-04-18T10:40:51.851Z,12
2023-04-18T10:41:51.908Z,12
2023-04-18T10:43:51.880Z,11.78
2023-04-18T10:44:51.889Z,11.5
2023-04-18T10:45:51.842Z,12
2023-04-18T10:46:51.957Z,11.61
2023-04-18T10:47:51.859Z,11.89
2023-04-18T10:49:51.866Z,11.78
2023-04-18T10:50:51.857Z,12
2023-04-18T10:51:51.858Z,11.78
2023-04-18T10:52:51.877Z,11.61
2023-04-18T10:53:51.868Z,11.5
2023-04-18T10:54:51.853Z,11.5
2023-04-18T10:55:51.867Z,11.61
2023-04-18T10:56:51.867Z,12
2023-04-18T10:57:51.890Z,12.17
2023-04-18T10:58:51.905Z,12
2023-04-18T10:59:51.914Z,11.61
2023-04-18T11:00:52.025Z,11.78
2023-04-18T11:02:52.098Z,11.78
2023-04-18T11:03:51.962Z,11.5
2023-04-18T11:05:51.875Z,12.5
2023-04-18T11:07:51.877Z,11.78
2023-04-18T11:08:51.896Z,12
2023-04-18T11:10:51.892Z,11.89
2023-04-18T11:12:51.893Z,12
2023-04-18T11:13:51.896Z,11.89
2023-04-18T11:14:51.909Z,12.33
2023-04-18T11:15:51.898Z,12.5
2023-04-18T11:16:52.001Z,12
2023-04-18T11:18:51.897Z,11.78
2023-04-18T11:19:51.892Z,12.5
2023-04-18T11:20:51.889Z,12.78
2023-04-18T11:22:51.904Z,12
2023-04-18T11:23:51.894Z,12
2023-04-18T11:24:51.895Z,11.89
2023-04-18T11:25:51.914Z,11.61
2023-04-18T11:26:51.908Z,12
2023-04-18T11:27:51.910Z,11.61
2023-04-18T11:28:51.933Z,11.61
2023-04-18T11:29:51.924Z,11.5
2023-04-18T11:31:51.982Z,11.61
2023-04-18T11:32:51.975Z,12.17
2023-04-18T11:34:51.910Z,11.78
2023-04-18T11:35:51.913Z,11.89
2023-04-18T11:37:51.912Z,12.17
2023-04-18T11:39:51.924Z,11.78
2023-04-18T11:40:51.904Z,12
2023-04-18T11:41:51.926Z,11.78
2023-04-18T11:42:51.927Z,12
2023-04-18T11:44:51.931Z,11.78
2023-04-18T11:46:51.938Z,12
2023-04-18T11:48:51.938Z,12.5
2023-04-18T11:49:51.916Z,12
2023-04-18T11:50:51.927Z,12.33
2023-04-18T11:51:51.921Z,12.17
2023-04-18T11:52:51.960Z,12.17
2023-04-18T11:53:51.939Z,12
2023-04-18T11:54:51.950Z,12.94
2023-04-18T11:55:51.921Z,13.11
2023-04-18T11:56:51.923Z,12.94
2023-04-18T11:57:51.934Z,13.39
2023-04-18T11:58:51.939Z,12.61
2023-04-18T11:59:51.933Z,13.11
2023-04-18T12:01:53.140Z,12.94
2023-04-18T12:02:52.024Z,12.78
2023-04-18T12:03:52.088Z,12.5
2023-04-18T12:04:52.285Z,12.17
2023-04-18T12:06:51.972Z,12.5
2023-04-18T12:08:53.969Z,12.61
2023-04-18T12:10:51.953Z,12.94
2023-04-18T12:12:51.964Z,12.33
2023-04-18T12:13:51.928Z,12.17
2023-04-18T12:14:51.947Z,12.33
2023-04-18T12:15:51.956Z,12.61
2023-04-18T12:16:51.966Z,12.78
2023-04-18T12:17:52.006Z,12.5
2023-04-18T12:18:51.957Z,12.33
2023-04-18T12:20:52.017Z,12.5
2023-04-18T12:22:51.940Z,12
2023-04-18T12:23:51.969Z,12
2023-04-18T12:25:51.947Z,12.33
2023-04-18T12:27:51.944Z,12.5
2023-04-18T12:28:51.949Z,12.33
2023-04-18T12:30:51.950Z,12.5
2023-04-18T12:32:51.970Z,12
2023-04-18T12:34:51.965Z,12
2023-04-18T12:35:51.952Z,12.17
2023-04-18T12:36:51.973Z,12
2023-04-18T12:38:51.970Z,11.78
2023-04-18T12:39:51.955Z,12
2023-04-18T12:40:51.978Z,11.5
2023-04-18T12:42:51.968Z,11.5
2023-04-18T12:43:51.955Z,11.78
2023-04-18T12:44:51.952Z,11.61
2023-04-18T12:45:51.983Z,12
2023-04-18T12:46:51.982Z,11.17
2023-04-18T12:48:51.953Z,10.89
2023-04-18T12:49:51.943Z,10.89
2023-04-18T12:50:51.956Z,11.33
2023-04-18T12:51:51.970Z,11.33
2023-04-18T12:52:52.003Z,11.33
2023-04-18T12:54:51.956Z,11.17
2023-04-18T12:55:51.977Z,11.17
2023-04-18T12:56:51.954Z,11.17
2023-04-18T12:57:51.959Z,11.5
2023-04-18T12:58:51.963Z,11.61
2023-04-18T13:00:51.983Z,11.78
2023-04-18T13:02:52.250Z,11.78
2023-04-18T13:04:00.229Z,12
2023-04-18T13:04:51.979Z,11.78
2023-04-18T13:06:51.968Z,11.89
2023-04-18T13:07:54.249Z,11.61
2023-04-18T13:08:51.999Z,11.89
2023-04-18T13:10:51.972Z,12.33
2023-04-18T13:11:51.967Z,12.17
2023-04-18T13:12:51.969Z,12.5
2023-04-18T13:13:51.978Z,12.5
2023-04-18T13:14:51.966Z,12.78
2023-04-18T13:15:51.991Z,12.33
2023-04-18T13:16:52.045Z,11.89
2023-04-18T13:17:51.979Z,12
2023-04-18T13:18:51.977Z,12
2023-04-18T13:20:51.968Z,12.33
2023-04-18T13:21:51.978Z,12.17
2023-04-18T13:23:51.974Z,12.17
2023-04-18T13:24:52.103Z,12.17
2023-04-18T13:26:51.988Z,12.94
2023-04-18T13:28:51.995Z,11.78
2023-04-18T13:30:51.986Z,11.89
2023-04-18T13:31:52.028Z,12
2023-04-18T13:32:52.006Z,11.61
2023-04-18T13:34:51.981Z,12
2023-04-18T13:35:51.987Z,12.33
2023-04-18T13:36:51.998Z,12
2023-04-18T13:37:51.989Z,11.78
2023-04-18T13:39:51.973Z,11.5
2023-04-18T13:40:58.215Z,11.61
2023-04-18T13:41:52.022Z,11.89
2023-04-18T13:42:52.008Z,11.89
2023-04-18T13:43:51.985Z,11.61
2023-04-18T13:44:51.988Z,11.61
2023-04-18T13:45:52.013Z,11.61
2023-04-18T13:46:51.984Z,11.89
2023-04-18T13:47:52.055Z,11.5
2023-04-18T13:48:52.004Z,11.61
2023-04-18T13:50:51.994Z,11.61
2023-04-18T13:51:51.996Z,11.5
2023-04-18T13:52:52.060Z,11.78
2023-04-18T13:54:52.019Z,11.78
2023-04-18T13:56:52.041Z,11.78
2023-04-18T13:57:51.999Z,11.33
2023-04-18T13:58:52.003Z,11.89
2023-04-18T14:00:52.005Z,11.61
2023-04-18T14:02:52.156Z,11.89
2023-04-18T14:03:52.130Z,11.78
2023-04-18T14:05:52.031Z,11.61
2023-04-18T14:06:52.015Z,12
2023-04-18T14:07:52.032Z,11.78
2023-04-18T14:09:53.790Z,11.61
2023-04-18T14:10:52.028Z,11.78
2023-04-18T14:11:52.011Z,12
2023-04-18T14:12:52.036Z,11.5
2023-04-18T14:14:52.023Z,11.33
2023-04-18T14:15:52.019Z,10.89
2023-04-18T14:16:52.028Z,11.5
2023-04-18T14:17:52.025Z,11.61
2023-04-18T14:18:52.032Z,11.17
2023-04-18T14:19:52.017Z,11.61
2023-04-18T14:20:52.035Z,11.78
2023-04-18T14:22:53.210Z,10.89
2023-04-18T14:24:52.038Z,11.5
2023-04-18T14:25:52.042Z,11.61
2023-04-18T14:26:52.041Z,11.61
2023-04-18T14:27:52.038Z,11.78
2023-04-18T14:28:52.072Z,11.5
2023-04-18T14:30:52.144Z,11.61
2023-04-18T14:32:52.058Z,11.61
2023-04-18T14:33:52.051Z,11.61
2023-04-18T14:34:52.045Z,11.17
2023-04-18T14:36:52.048Z,11.17
2023-04-18T14:38:52.031Z,11.5
2023-04-18T14:39:52.051Z,11.78
2023-04-18T14:40:52.058Z,12
2023-04-18T14:42:52.050Z,11.61
2023-04-18T14:43:52.040Z,11.61
2023-04-18T14:44:52.068Z,11.5
2023-04-18T14:46:52.057Z,11.89
2023-04-18T14:47:52.070Z,11.61
2023-04-18T14:48:52.052Z,11.61
2023-04-18T14:49:52.050Z,12
2023-04-18T14:50:52.057Z,11.78
2023-04-18T14:52:52.060Z,12
2023-04-18T14:53:52.053Z,11.89
2023-04-18T14:54:52.070Z,12.17
2023-04-18T14:55:52.069Z,12
2023-04-18T14:56:52.046Z,11.61
2023-04-18T14:57:52.056Z,11.89
2023-04-18T14:58:52.070Z,12
2023-04-18T15:00:52.147Z,11.78
2023-04-18T15:02:52.259Z,11.61
2023-04-18T15:03:52.110Z,11.5
2023-04-18T15:04:52.144Z,11.17
2023-04-18T15:06:52.076Z,12
2023-04-18T15:07:52.093Z,12.33
2023-04-18T15:08:52.062Z,11.78
2023-04-18T15:09:52.086Z,11.89
2023-04-18T15:10:52.071Z,12
2023-04-18T15:11:52.076Z,11.61
2023-04-18T15:12:52.085Z,11.61
2023-04-18T15:14:52.077Z,11.61
2023-04-18T15:15:52.082Z,11.61
2023-04-18T15:16:52.203Z,11.33
2023-04-18T15:18:52.078Z,11.61
2023-04-18T15:19:52.104Z,11.61
2023-04-18T15:20:52.102Z,11.5
2023-04-18T15:22:52.130Z,11.5
2023-04-18T15:23:52.096Z,11.61
2023-04-18T15:25:52.082Z,11.61
2023-04-18T15:27:52.108Z,11.17
2023-04-18T15:29:52.100Z,11.61
2023-04-18T15:30:52.105Z,11.78
2023-04-18T15:31:52.121Z,11.61
2023-04-18T15:32:52.207Z,11.17
2023-04-18T15:34:52.104Z,11.61
2023-04-18T15:36:52.108Z,11.33
2023-04-18T15:37:52.129Z,11.61
2023-04-18T15:38:52.105Z,11.61
2023-04-18T15:39:52.113Z,11.06
2023-04-18T15:40:52.110Z,11.5
2023-04-18T15:41:52.112Z,11.17
2023-04-18T15:42:52.120Z,11.17
2023-04-18T15:44:52.115Z,11.06
2023-04-18T15:46:52.124Z,11.17
2023-04-18T15:47:52.125Z,11.17
2023-04-18T15:48:52.154Z,11.33
2023-04-18T15:49:52.112Z,11.17
2023-04-18T15:50:52.128Z,11.17
2023-04-18T15:51:52.115Z,11.17
2023-04-18T15:52:52.132Z,11.33
2023-04-18T15:53:52.116Z,11.17
2023-04-18T15:54:52.136Z,11.33
2023-04-18T15:55:52.140Z,10.89
2023-04-18T15:56:52.124Z,11.17
2023-04-18T15:57:52.144Z,11.06
2023-04-18T15:58:52.136Z,11.06
2023-04-18T16:00:52.128Z,10.72
2023-04-18T16:01:52.170Z,11.17
2023-04-18T16:02:52.316Z,10.61
2023-04-18T16:03:52.252Z,10.89
2023-04-18T16:04:52.247Z,10.89
2023-04-18T16:06:52.145Z,11.17
2023-04-18T16:07:52.145Z,10.89
2023-04-18T16:08:52.151Z,11.06
2023-04-18T16:09:52.143Z,10.89
2023-04-18T16:10:52.139Z,11.06
2023-04-18T16:11:52.144Z,10.89
2023-04-18T16:12:52.125Z,10.89
2023-04-18T16:13:52.159Z,11.06
2023-04-18T16:14:52.141Z,11.17
2023-04-18T16:15:52.202Z,11.06
2023-04-18T16:16:52.133Z,10.72
2023-04-18T16:17:52.146Z,10.72
2023-04-18T16:18:52.154Z,10.61
2023-04-18T16:20:52.193Z,10.61
2023-04-18T16:22:52.169Z,10.72
2023-04-18T16:23:52.151Z,10.72
2023-04-18T16:24:52.141Z,10.72
2023-04-18T16:25:52.165Z,10.89
2023-04-18T16:26:52.160Z,10.61
2023-04-18T16:28:52.167Z,11.06
2023-04-18T16:30:54.160Z,11.06
2023-04-18T16:31:52.193Z,11.06
2023-04-18T16:32:52.208Z,11.17
2023-04-18T16:33:52.220Z,10.89
2023-04-18T16:34:52.172Z,10.72
2023-04-18T16:35:52.174Z,10.72
2023-04-18T16:36:52.622Z,10.72
2023-04-18T16:37:52.166Z,10.61
2023-04-18T16:38:52.163Z,10.33
2023-04-18T16:39:52.182Z,10.33
2023-04-18T16:41:52.195Z,10.72
2023-04-18T16:42:52.182Z,10.44